Carnival Vista — 3EMB9 — position and weather

sailwx.info

Track history (hours):
 
Tides and Currents Weather Stations Pressure Air Temp Water Temp Dewpoint Dewpoint Depression Visibility Wind Speed Wind Dir Waves Ship Positions

Carnival Vista

Last reported at 2017-Jul-20 22:47 UTC. Time now 2017-Jul-22 12:40 UTC.
Position N 18°11' W 063°22'.

Length 324 m; draft 8.5 m.

Type: Passenger vessel. MMSI: 356883000.

Date/timePositionNaut miles runAvg speedWind from/ knotsBaromVisibWave heightAir tempDewpointWater temp
2017-Jul-20 22:47N 18°11' W 063°22'619.6
2017-Jul-20 22:29N 18°06' W 063°18'919.2
2017-Jul-20 22:00N 18°00' W 063°11'8 2.7
2017-Jul-20 19:15N 18°01' W 063°03'0 0.0
2017-Jul-20 11:52N 18°01' W 063°03'0 0.3
2017-Jul-20 11:30N 18°01' W 063°03'3 5.2
2017-Jul-20 10:59N 17°60' W 063°06'715.9
2017-Jul-20 10:30N 18°01' W 063°13'918.1
2017-Jul-20 10:00N 18°02' W 063°23'1019.1
2017-Jul-20 09:30N 18°02' W 063°33'1018.4
2017-Jul-20 08:57N 18°03' W 063°43'5716.4
2017-Jul-20 05:29N 18°09' W 064°43'817.4
2017-Jul-20 05:00N 18°10' W 064°52'  
2017-Jul-16 01:09N 26°11' W 079°21'216.8
2017-Jul-16 01:00N 26°10' W 079°23'816.8
2017-Jul-16 00:30N 26°04' W 079°30'816.0
2017-Jul-16 00:00N 25°59' W 079°37'713.8
2017-Jul-15 23:30N 25°55' W 079°44'713.8
2017-Jul-15 23:00N 25°52' W 079°51'713.8
2017-Jul-15 22:30N 25°49' W 079°57'612.8
2017-Jul-15 22:00N 25°46' W 080°04'5 9.2
2017-Jul-15 21:30N 25°46' W 080°09'1 2.2
2017-Jul-15 20:55N 25°47' W 080°10'0 0.0
2017-Jul-15 20:28N 25°47' W 080°10'0 0.0
2017-Jul-15 19:58N 25°47' W 080°10'0 0.0
2017-Jul-15 19:25N 25°47' W 080°10'0 0.0
2017-Jul-15 18:55N 25°47' W 080°10'0 0.0
2017-Jul-15 18:25N 25°47' W 080°10'0 0.0
2017-Jul-15 17:55N 25°47' W 080°10'0 0.0
2017-Jul-15 17:25N 25°47' W 080°10'0 0.0
2017-Jul-15 16:55N 25°47' W 080°10'0 0.0
2017-Jul-15 16:25N 25°47' W 080°10'0 0.0
2017-Jul-15 15:55N 25°47' W 080°10'0 0.0
2017-Jul-15 15:25N 25°47' W 080°10'0 0.0
2017-Jul-15 14:58N 25°47' W 080°10'0 0.0
2017-Jul-15 13:58N 25°47' W 080°10'0 0.0
2017-Jul-15 13:28N 25°47' W 080°10'0 0.0
2017-Jul-15 12:58N 25°47' W 080°10'0 0.0
2017-Jul-15 12:28N 25°47' W 080°10'0 0.0
2017-Jul-15 11:58N 25°47' W 080°10'0 0.0
2017-Jul-15 11:28N 25°47' W 080°10'0 0.0
2017-Jul-15 10:58N 25°47' W 080°10'0 0.0
2017-Jul-15 10:28N 25°47' W 080°10'0 0.0
2017-Jul-15 09:58N 25°47' W 080°10'0 0.0
2017-Jul-15 09:29N 25°47' W 080°10'0 0.3
2017-Jul-15 09:00N 25°47' W 080°10'0 0.8
2017-Jul-15 08:30N 25°47' W 080°11'4 8.0
2017-Jul-15 08:01N 25°46' W 080°06'4 8.1
2017-Jul-15 07:31N 25°46' W 080°02'4 8.2
2017-Jul-15 07:01N 25°42' W 079°59'713.3
2017-Jul-15 06:31N 25°37' W 079°55'713.9
2017-Jul-15 06:00N 25°31' W 079°50'714.3
2017-Jul-15 05:30N 25°26' W 079°45'714.5
2017-Jul-15 05:00N 25°20' W 079°41'2314.6
2017-Jul-15 03:28N 24°57' W 079°42'48217.0
2017-Jul-13 23:03N 20°32' W 086°59'010.1
2017-Jul-13 23:01N 20°32' W 086°59'3 6.3
2017-Jul-13 22:28N 20°29' W 086°59'0 0.0
2017-Jul-13 21:58N 20°29' W 086°59'0 0.0
2017-Jul-13 21:28N 20°29' W 086°59'0 0.0
2017-Jul-13 20:58N 20°29' W 086°59'0 0.0
2017-Jul-13 20:28N 20°29' W 086°59'0 0.0
2017-Jul-13 19:55N 20°29' W 086°59'0 0.0
2017-Jul-13 19:25N 20°29' W 086°59'0 0.0
2017-Jul-13 18:58N 20°29' W 086°59'0 0.0
2017-Jul-13 18:25N 20°29' W 086°59'0 0.0
2017-Jul-13 17:58N 20°29' W 086°59'0 0.0
2017-Jul-13 17:28N 20°29' W 086°59'0 0.0
2017-Jul-13 16:55N 20°29' W 086°59'0 0.0
2017-Jul-13 16:28N 20°29' W 086°59'0 0.0
2017-Jul-13 15:58N 20°29' W 086°59'0 0.0
2017-Jul-13 15:28N 20°29' W 086°59'0 0.0
2017-Jul-13 14:58N 20°29' W 086°59'0 0.0
2017-Jul-13 14:28N 20°29' W 086°59'0 0.0
2017-Jul-13 13:58N 20°29' W 086°59'0 0.1
2017-Jul-13 13:30N 20°29' W 086°59'3 5.4
2017-Jul-13 13:00N 20°31' W 086°59'611.7
2017-Jul-13 12:30N 20°36' W 086°55'  
Track history (hours):
 
Tides and Currents Weather Stations Pressure Air Temp Water Temp Dewpoint Dewpoint Depression Visibility Wind Speed Wind Dir Waves Ship Positions

Carnival Vista

Last reported at 2017-Jul-20 22:47 UTC. Time now 2017-Jul-22 12:40 UTC.
Position N 18°11' W 063°22'.

Length 324 m; draft 8.5 m.

Type: Passenger vessel. MMSI: 356883000.

Date/timePositionNaut miles runAvg speedWind from/ knotsBaromVisibWave heightAir tempDewpointWater temp
2017-Jul-20 22:47N 18°11' W 063°22'619.6
2017-Jul-20 22:29N 18°06' W 063°18'919.2
2017-Jul-20 22:00N 18°00' W 063°11'8 2.7
2017-Jul-20 19:15N 18°01' W 063°03'0 0.0
2017-Jul-20 11:52N 18°01' W 063°03'0 0.3
2017-Jul-20 11:30N 18°01' W 063°03'3 5.2
2017-Jul-20 10:59N 17°60' W 063°06'715.9
2017-Jul-20 10:30N 18°01' W 063°13'918.1
2017-Jul-20 10:00N 18°02' W 063°23'1019.1
2017-Jul-20 09:30N 18°02' W 063°33'1018.4
2017-Jul-20 08:57N 18°03' W 063°43'5716.4
2017-Jul-20 05:29N 18°09' W 064°43'817.4
2017-Jul-20 05:00N 18°10' W 064°52'  
2017-Jul-16 01:09N 26°11' W 079°21'216.8
2017-Jul-16 01:00N 26°10' W 079°23'816.8
2017-Jul-16 00:30N 26°04' W 079°30'816.0
2017-Jul-16 00:00N 25°59' W 079°37'713.8
2017-Jul-15 23:30N 25°55' W 079°44'713.8
2017-Jul-15 23:00N 25°52' W 079°51'713.8
2017-Jul-15 22:30N 25°49' W 079°57'612.8
2017-Jul-15 22:00N 25°46' W 080°04'5 9.2
2017-Jul-15 21:30N 25°46' W 080°09'1 2.2
2017-Jul-15 20:55N 25°47' W 080°10'0 0.0
2017-Jul-15 20:28N 25°47' W 080°10'0 0.0
2017-Jul-15 19:58N 25°47' W 080°10'0 0.0
2017-Jul-15 19:25N 25°47' W 080°10'0 0.0
2017-Jul-15 18:55N 25°47' W 080°10'0 0.0
2017-Jul-15 18:25N 25°47' W 080°10'0 0.0
2017-Jul-15 17:55N 25°47' W 080°10'0 0.0
2017-Jul-15 17:25N 25°47' W 080°10'0 0.0
2017-Jul-15 16:55N 25°47' W 080°10'0 0.0
2017-Jul-15 16:25N 25°47' W 080°10'0 0.0
2017-Jul-15 15:55N 25°47' W 080°10'0 0.0
2017-Jul-15 15:25N 25°47' W 080°10'0 0.0
2017-Jul-15 14:58N 25°47' W 080°10'0 0.0
2017-Jul-15 13:58N 25°47' W 080°10'0 0.0
2017-Jul-15 13:28N 25°47' W 080°10'0 0.0
2017-Jul-15 12:58N 25°47' W 080°10'0 0.0
2017-Jul-15 12:28N 25°47' W 080°10'0 0.0
2017-Jul-15 11:58N 25°47' W 080°10'0 0.0
2017-Jul-15 11:28N 25°47' W 080°10'0 0.0
2017-Jul-15 10:58N 25°47' W 080°10'0 0.0
2017-Jul-15 10:28N 25°47' W 080°10'0 0.0
2017-Jul-15 09:58N 25°47' W 080°10'0 0.0
2017-Jul-15 09:29N 25°47' W 080°10'0 0.3
2017-Jul-15 09:00N 25°47' W 080°10'0 0.8
2017-Jul-15 08:30N 25°47' W 080°11'4 8.0
2017-Jul-15 08:01N 25°46' W 080°06'4 8.1
2017-Jul-15 07:31N 25°46' W 080°02'4 8.2
2017-Jul-15 07:01N 25°42' W 079°59'713.3
2017-Jul-15 06:31N 25°37' W 079°55'713.9
2017-Jul-15 06:00N 25°31' W 079°50'714.3
2017-Jul-15 05:30N 25°26' W 079°45'714.5
2017-Jul-15 05:00N 25°20' W 079°41'2314.6
2017-Jul-15 03:28N 24°57' W 079°42'48217.0
2017-Jul-13 23:03N 20°32' W 086°59'010.1
2017-Jul-13 23:01N 20°32' W 086°59'3 6.3
2017-Jul-13 22:28N 20°29' W 086°59'0 0.0
2017-Jul-13 21:58N 20°29' W 086°59'0 0.0
2017-Jul-13 21:28N 20°29' W 086°59'0 0.0
2017-Jul-13 20:58N 20°29' W 086°59'0 0.0
2017-Jul-13 20:28N 20°29' W 086°59'0 0.0
2017-Jul-13 19:55N 20°29' W 086°59'0 0.0
2017-Jul-13 19:25N 20°29' W 086°59'0 0.0
2017-Jul-13 18:58N 20°29' W 086°59'0 0.0
2017-Jul-13 18:25N 20°29' W 086°59'0 0.0
2017-Jul-13 17:58N 20°29' W 086°59'0 0.0
2017-Jul-13 17:28N 20°29' W 086°59'0 0.0
2017-Jul-13 16:55N 20°29' W 086°59'0 0.0
2017-Jul-13 16:28N 20°29' W 086°59'0 0.0
2017-Jul-13 15:58N 20°29' W 086°59'0 0.0
2017-Jul-13 15:28N 20°29' W 086°59'0 0.0
2017-Jul-13 14:58N 20°29' W 086°59'0 0.0
2017-Jul-13 14:28N 20°29' W 086°59'0 0.0
2017-Jul-13 13:58N 20°29' W 086°59'0 0.1
2017-Jul-13 13:30N 20°29' W 086°59'3 5.4
2017-Jul-13 13:00N 20°31' W 086°59'611.7
2017-Jul-13 12:30N 20°36' W 086°55'  

Dump ship's entire track history